Terminal Aerodrome Forecast
Issued by NWS

Home | Current Version | Previous Version | Text Only | Print | Product List | Glossary On
Versions: 1 2 3 4 5 6 7 8 9 10 11 12 13 14 15 16 17 18
668
FTUS46 KSEW 010520
TAFPAE
TAF
KPAE 010520Z 0106/0206 11004KT P6SM SCT060 SCT150
     FM011000 17008KT P6SM BKN050 BKN120
     FM011600 18014KT P6SM OVC050
     FM011900 18015G22KT P6SM -SHRA SCT025 OVC050
     FM020300 17010KT P6SM BKN050 OVC090=

USA.gov is the U.S. government's official web portal to all federal, state and local government web resources and services.